Time;durP1;ratioP1;P1;durP2;ratioP2;P2;SDS_P1;SDS_P2;PMS_P1;PMS_P2;Temp;Humidity;BMP_temperature;BMP_pressure;BME280_temperature;BME280_humidity;BME280_pressure;Samples;Min_cycle;Max_cycle;Signal;HPM_P1;HPM_P2
2022/11/22 00:00:04;;;;;;;2.90;0.93;;;;;;;-145.69;100.00;52590.94;5115437;28;20201;-80
2022/11/22 00:02:33;;;;;;;5.13;1.10;;;;;;;-145.69;100.00;52660.25;5115491;28;20667;-79
2022/11/22 00:05:00;;;;;;;4.93;1.17;;;;;;;-145.69;100.00;52640.44;5115617;28;20205;-79
2022/11/22 00:07:28;;;;;;;0.87;0.80;;;;;;;-145.69;100.00;52634.50;5115429;28;20200;-79
2022/11/22 00:09:54;;;;;;;4.57;0.90;;;;;;;-145.69;100.00;52646.41;5115848;28;20303;-79
2022/11/22 00:12:21;;;;;;;3.27;0.67;;;;;;;-145.69;100.00;52644.41;5115187;28;20232;-80
2022/11/22 00:14:47;;;;;;;2.00;0.90;;;;;;;-145.69;100.00;52686.00;5115420;28;20237;-79
2022/11/22 00:17:14;;;;;;;1.27;1.00;;;;;;;-145.69;100.00;52674.13;5115206;28;20331;-79
2022/11/22 00:19:41;;;;;;;3.67;0.73;;;;;;;-145.69;100.00;52638.47;5115027;28;20211;-79
2022/11/22 00:22:08;;;;;;;2.20;1.00;;;;;;;-145.69;100.00;52656.28;5115342;28;20273;-78
2022/11/22 00:24:36;;;;;;;1.37;0.90;;;;;;;-145.69;100.00;52632.53;5115454;28;20201;-79
2022/11/22 00:27:02;;;;;;;3.27;0.90;;;;;;;-145.69;100.00;52656.28;5115366;28;20202;-79
2022/11/22 00:29:29;;;;;;;2.07;1.00;;;;;;;-145.69;100.00;52664.22;5114867;28;20262;-79
2022/11/22 00:31:55;;;;;;;1.87;1.17;;;;;;;-145.69;100.00;52640.44;5114752;28;20193;-79
2022/11/22 00:34:24;;;;;;;0.93;0.70;;;;;;;-145.69;100.00;52654.31;5115005;28;20213;-79
2022/11/22 00:36:50;;;;;;;3.47;1.00;;;;;;;-145.69;100.00;52638.47;5114832;28;20256;-78
2022/11/22 00:39:17;;;;;;;0.97;0.80;;;;;;;-145.69;100.00;52658.28;5114717;28;20197;-79
2022/11/22 00:41:48;;;;;;;0.97;0.83;;;;;;;-145.69;100.00;52654.31;5115177;28;20220;-79
2022/11/22 00:44:14;;;;;;;2.27;1.17;;;;;;;-145.69;100.00;52646.41;5114542;28;20201;-79
2022/11/22 00:46:41;;;;;;;1.53;1.07;;;;;;;-145.69;100.00;52654.31;5114814;28;20205;-79
2022/11/22 00:49:07;;;;;;;3.50;1.00;;;;;;;-145.69;100.00;52660.25;5114963;28;20544;-79
2022/11/22 00:51:34;;;;;;;2.60;0.90;;;;;;;-145.69;100.00;52666.19;5114731;28;20197;-79
2022/11/22 00:54:00;;;;;;;3.03;1.00;;;;;;;-145.69;100.00;52658.28;5114580;28;20189;-79
2022/11/22 00:56:26;;;;;;;4.47;1.40;;;;;;;-145.69;100.00;52620.66;5114576;28;20240;-79
2022/11/22 00:58:54;;;;;;;1.30;0.87;;;;;;;-145.69;100.00;52622.63;5114348;28;20193;-79
2022/11/22 01:01:21;;;;;;;3.20;1.10;;;;;;;-145.69;100.00;52624.59;5114486;28;20212;-79
2022/11/22 01:03:47;;;;;;;1.47;1.20;;;;;;;-145.69;100.00;52642.44;5114081;28;20525;-79
2022/11/22 01:06:14;;;;;;;3.00;1.00;;;;;;;-145.69;100.00;52624.59;5114454;28;20193;-79
2022/11/22 01:08:43;;;;;;;3.50;1.10;;;;;;;-145.69;100.00;52628.56;5114312;28;20198;-79
2022/11/22 01:11:10;;;;;;;4.73;1.07;;;;;;;-145.69;100.00;52676.09;5114512;28;20201;-79
2022/11/22 01:13:37;;;;;;;4.23;1.07;;;;;;;-145.69;100.00;52650.34;5113666;28;20204;-80
2022/11/22 01:16:07;;;;;;;0.90;0.90;;;;;;;-145.69;100.00;52662.22;5113981;28;20221;-79
2022/11/22 01:18:39;;;;;;;2.57;1.10;;;;;;;-145.69;100.00;52630.53;5109781;28;20281;-79
2022/11/22 01:21:06;;;;;;;2.33;1.00;;;;;;;-145.69;100.00;52642.44;5114130;28;20292;-79
2022/11/22 01:23:33;;;;;;;2.33;0.97;;;;;;;-145.69;100.00;52616.69;5113616;28;20198;-79
2022/11/22 01:25:59;;;;;;;2.00;1.27;;;;;;;-145.69;100.00;52624.59;5114114;28;20193;-79
2022/11/22 01:28:27;;;;;;;1.50;1.00;;;;;;;-145.69;100.00;52626.59;5113970;28;20748;-78
2022/11/22 01:30:54;;;;;;;1.73;1.00;;;;;;;-145.69;100.00;52666.19;5113063;28;20201;-78
2022/11/22 01:33:22;;;;;;;4.37;1.33;;;;;;;-145.69;100.00;52632.53;5113912;28;20213;-78
2022/11/22 01:35:49;;;;;;;2.40;1.10;;;;;;;-145.69;100.00;52680.06;5113718;28;20239;-78
2022/11/22 01:38:15;;;;;;;3.93;1.20;;;;;;;-145.69;100.00;52658.28;5113927;28;20224;-78
2022/11/22 01:40:44;;;;;;;4.60;1.30;;;;;;;-145.69;100.00;52652.34;5113172;28;20198;-78
2022/11/22 01:43:18;;;;;;;5.07;1.50;;;;;;;-145.69;100.00;52662.22;5109546;28;20198;-78
2022/11/22 01:45:48;;;;;;;2.80;1.30;;;;;;;-145.69;100.00;52650.34;5093432;28;20775;-78
2022/11/22 01:48:24;;;;;;;4.93;1.40;;;;;;;-145.69;100.00;52658.28;5093471;28;20202;-78
2022/11/22 01:50:55;;;;;;;4.97;1.57;;;;;;;-145.69;100.00;52638.47;5108385;28;20200;-78
2022/11/22 01:53:28;;;;;;;3.33;1.57;;;;;;;-145.69;100.00;52654.31;5113533;28;20208;-78
2022/11/22 01:55:58;;;;;;;3.33;1.60;;;;;;;-145.69;100.00;52662.22;5113589;28;20229;-78
2022/11/22 01:58:27;;;;;;;2.50;1.40;;;;;;;-145.69;100.00;52668.19;5113174;28;20289;-78
2022/11/22 02:00:55;;;;;;;8.57;1.53;;;;;;;-145.69;100.00;52676.09;5112603;28;20193;-78
2022/11/22 02:03:23;;;;;;;3.33;1.70;;;;;;;-145.69;100.00;52618.66;5113531;28;20204;-78
2022/11/22 02:05:51;;;;;;;4.43;1.33;;;;;;;-145.69;100.00;52638.47;5113024;28;20201;-78
2022/11/22 02:08:22;;;;;;;7.97;1.60;;;;;;;-145.69;100.00;52634.50;5113195;28;20193;-78
2022/11/22 02:10:51;;;;;;;2.57;1.40;;;;;;;-145.69;100.00;52682.03;5113371;28;20197;-78
2022/11/22 02:13:21;;;;;;;3.87;1.60;;;;;;;-145.69;100.00;52654.31;5113332;28;20197;-79
2022/11/22 02:15:49;;;;;;;2.63;1.50;;;;;;;-145.69;100.00;52654.31;5113261;28;20224;-78
2022/11/22 02:18:15;;;;;;;6.37;1.43;;;;;;;-145.69;100.00;52666.19;5112744;28;20209;-78
2022/11/22 02:20:44;;;;;;;3.43;1.23;;;;;;;-145.69;100.00;52654.31;5113159;28;20197;-78
2022/11/22 02:23:16;;;;;;;1.93;1.63;;;;;;;-145.69;100.00;52680.06;5113479;28;20205;-78
2022/11/22 02:25:50;;;;;;;4.40;1.30;;;;;;;-145.69;100.00;52670.16;5113116;28;20559;-78
2022/11/22 02:28:17;;;;;;;4.27;1.30;;;;;;;-145.69;100.00;52666.19;5113684;28;20197;-78
2022/11/22 02:30:44;;;;;;;5.70;1.30;;;;;;;-145.69;100.00;52687.97;5112176;28;20193;-78
2022/11/22 02:33:13;;;;;;;2.70;1.20;;;;;;;-145.69;100.00;52662.22;5112723;28;20571;-78
2022/11/22 02:35:40;;;;;;;5.43;1.40;;;;;;;-145.69;100.00;52670.16;5112860;28;20224;-79
2022/11/22 02:38:09;;;;;;;2.83;1.27;;;;;;;-145.69;100.00;52666.19;5112998;28;20194;-78
2022/11/22 02:40:42;;;;;;;5.77;1.43;;;;;;;-145.69;100.00;52674.13;5112515;28;20228;-78
2022/11/22 02:43:13;;;;;;;6.07;1.17;;;;;;;-145.69;100.00;52686.00;5113017;28;20295;-78
2022/11/22 02:45:39;;;;;;;1.90;1.07;;;;;;;-145.69;100.00;52693.94;5112684;28;20595;-79
2022/11/22 02:48:08;;;;;;;5.03;1.27;;;;;;;-145.69;100.00;52666.19;5112803;28;20193;-78
2022/11/22 02:50:35;;;;;;;8.57;1.20;;;;;;;-145.69;100.00;52662.22;5113084;28;20237;-78
2022/11/22 02:53:01;;;;;;;4.80;1.17;;;;;;;-145.69;100.00;52674.13;5112265;28;20194;-78
2022/11/22 02:55:28;;;;;;;7.43;1.80;;;;;;;-145.69;100.00;52678.09;5112720;28;20225;-78
2022/11/22 02:57:56;;;;;;;6.27;1.30;;;;;;;-145.69;100.00;52695.91;5112282;28;20194;-79
2022/11/22 03:00:24;;;;;;;5.97;1.43;;;;;;;-145.69;100.00;52660.25;5113081;28;20201;-78
2022/11/22 03:02:50;;;;;;;8.27;2.07;;;;;;;-145.69;100.00;52674.13;5112538;28;20205;-79
2022/11/22 03:05:17;;;;;;;6.60;1.63;;;;;;;-145.69;100.00;52687.97;5112791;28;20193;-79
2022/11/22 03:07:44;;;;;;;6.33;1.67;;;;;;;-145.69;100.00;52699.88;5112732;28;20197;-78
2022/11/22 03:10:11;;;;;;;8.63;2.35;;;;;;;-145.69;100.00;52662.22;5111296;28;20431;-78
2022/11/22 03:12:37;;;;;;;5.30;1.90;;;;;;;-145.69;100.00;52678.09;5112278;28;20202;-79
2022/11/22 03:15:04;;;;;;;7.70;1.40;;;;;;;-145.69;100.00;52662.22;5112840;28;20201;-78
2022/11/22 03:17:32;;;;;;;9.37;1.40;;;;;;;-145.69;100.00;52689.97;5112397;28;20221;-78
2022/11/22 03:19:59;;;;;;;7.23;1.60;;;;;;;-145.69;100.00;52682.03;5112383;28;20652;-78
2022/11/22 03:22:25;;;;;;;7.67;1.60;;;;;;;-145.69;100.00;52687.97;5111915;28;20201;-78
2022/11/22 03:24:52;;;;;;;8.00;1.83;;;;;;;-145.69;100.00;52687.97;5112508;28;20198;-78
2022/11/22 03:27:18;;;;;;;8.03;1.40;;;;;;;-145.69;100.00;52638.47;5112574;28;20206;-78
2022/11/22 03:29:45;;;;;;;5.47;1.80;;;;;;;-145.69;100.00;52658.28;5112589;28;20204;-79
2022/11/22 03:32:11;;;;;;;5.13;1.70;;;;;;;-145.69;100.00;52650.34;5112189;28;20193;-78
2022/11/22 03:34:39;;;;;;;6.47;1.50;;;;;;;-145.69;100.00;52682.03;5112279;28;20554;-77
2022/11/22 03:37:06;;;;;;;6.20;1.53;;;;;;;-145.69;100.00;52674.13;5111981;28;20229;-78
2022/11/22 03:39:33;;;;;;;5.03;1.60;;;;;;;-145.69;100.00;52674.13;5111786;28;20193;-78
2022/11/22 03:41:59;;;;;;;6.23;1.40;;;;;;;-145.69;100.00;52693.94;5113984;28;20220;-78
2022/11/22 03:44:26;;;;;;;5.50;1.30;;;;;;;-145.69;100.00;52658.28;5115907;28;20209;-78
2022/11/22 03:46:52;;;;;;;3.60;1.40;;;;;;;-145.69;100.00;52674.13;5115599;28;20219;-77
2022/11/22 03:49:19;;;;;;;8.97;1.97;;;;;;;-145.69;100.00;52701.84;5097135;28;20213;-79
2022/11/22 03:51:46;;;;;;;7.03;1.43;;;;;;;-145.69;100.00;52646.41;5095434;28;20689;-78
2022/11/22 03:54:13;;;;;;;6.93;1.40;;;;;;;-145.69;100.00;52687.97;5095517;28;20217;-79
2022/11/22 03:56:40;;;;;;;5.83;1.40;;;;;;;-145.69;100.00;52670.16;5099110;28;20699;-79
2022/11/22 03:59:06;;;;;;;4.83;1.27;;;;;;;-145.69;100.00;52654.31;5115609;28;20552;-79
2022/11/22 04:01:32;;;;;;;4.57;1.43;;;;;;;-145.69;100.00;52684.03;5115882;28;20598;-78
2022/11/22 04:03:59;;;;;;;8.33;1.40;;;;;;;-145.69;100.00;52676.09;5115762;28;20202;-78
2022/11/22 04:06:25;;;;;;;4.83;1.30;;;;;;;-145.69;100.00;52666.19;5114810;28;20685;-78
2022/11/22 04:08:53;;;;;;;5.77;1.83;;;;;;;-145.69;100.00;52662.22;5115412;28;20198;-79
2022/11/22 04:11:20;;;;;;;8.20;2.07;;;;;;;-145.69;100.00;52668.19;5115842;28;20204;-78
2022/11/22 04:16:30;;;;;;;3.67;1.27;;;;;;;-145.69;100.00;52686.00;5115322;28;20806;-78
2022/11/22 04:18:57;;;;;;;7.43;1.63;;;;;;;-145.69;100.00;52638.47;5114712;28;20284;-78
2022/11/22 04:21:34;;;;;;;9.80;1.97;;;;;;;-145.69;100.00;52650.34;5115068;28;20197;-78
2022/11/22 04:26:48;;;;;;;8.20;1.40;;;;;;;-145.69;100.00;52707.78;5115220;28;20203;-78
2022/11/22 04:29:14;;;;;;;6.90;1.50;;;;;;;-145.69;100.00;52684.03;5114454;28;20645;-78
2022/11/22 04:34:25;;;;;;;5.13;1.43;;;;;;;-145.69;100.00;52658.28;5115349;28;20247;-78
2022/11/22 04:36:52;;;;;;;7.37;1.30;;;;;;;-145.69;100.00;52654.31;5114674;28;20233;-78
2022/11/22 04:39:20;;;;;;;6.30;1.50;;;;;;;-145.69;100.00;52642.44;5114865;28;20190;-78
2022/11/22 04:44:39;;;;;;;8.83;1.67;;;;;;;-145.69;100.00;52684.03;5114436;28;20189;-79
2022/11/22 04:44:42;;;;;;;10.27;1.37;;;;;;;-145.69;100.00;52654.31;5114666;28;20224;-78
2022/11/22 04:47:09;;;;;;;5.80;1.53;;;;;;;-145.69;100.00;52678.09;5114771;28;20647;-79
2022/11/22 04:49:35;;;;;;;6.33;1.50;;;;;;;-145.69;100.00;52674.13;5114911;28;20204;-79
2022/11/22 04:54:48;;;;;;;7.40;1.50;;;;;;;-145.69;100.00;52666.19;5114006;28;20339;-78
2022/11/22 04:57:14;;;;;;;6.70;1.37;;;;;;;-145.69;100.00;52672.13;5114776;28;20269;-78
2022/11/22 04:59:41;;;;;;;13.03;1.50;;;;;;;-145.69;100.00;52664.22;5114559;28;20198;-78
2022/11/22 05:02:07;;;;;;;8.57;1.33;;;;;;;-145.69;100.00;52678.09;5114322;28;20198;-77
2022/11/22 05:04:34;;;;;;;3.73;1.30;;;;;;;-145.69;100.00;52654.31;5114661;28;20198;-78
2022/11/22 05:07:00;;;;;;;3.27;1.00;;;;;;;-145.69;100.00;52664.22;5114107;28;20197;-78
2022/11/22 05:09:27;;;;;;;3.30;0.90;;;;;;;-145.69;100.00;52686.00;5113795;28;20197;-79
2022/11/22 05:11:55;;;;;;;13.03;1.10;;;;;;;-145.69;100.00;52654.31;5114276;28;20202;-78
2022/11/22 05:14:21;;;;;;;4.33;1.50;;;;;;;-145.69;100.00;52678.09;5114236;28;20201;-78
2022/11/22 05:16:47;;;;;;;3.90;1.13;;;;;;;-145.69;100.00;52656.28;5113683;28;20729;-78
2022/11/22 05:19:14;;;;;;;4.80;1.20;;;;;;;-145.69;100.00;52680.06;5114181;28;20201;-79
2022/11/22 05:21:40;;;;;;;8.17;1.57;;;;;;;-145.69;100.00;52654.31;5113547;28;20197;-79
2022/11/22 05:24:06;;;;;;;11.67;1.40;;;;;;;-145.69;100.00;52650.34;5114157;28;20585;-79
2022/11/22 05:26:35;;;;;;;3.80;1.10;;;;;;;-145.69;100.00;52682.03;5113906;28;20208;-79
2022/11/22 05:29:06;;;;;;;3.37;1.23;;;;;;;-145.69;100.00;52682.03;5113794;28;20201;-79
2022/11/22 05:31:34;;;;;;;4.47;1.30;;;;;;;-145.69;100.00;52674.13;5113844;28;20212;-79
2022/11/22 05:34:00;;;;;;;3.93;0.90;;;;;;;-145.69;100.00;52684.03;5113912;28;20208;-79
2022/11/22 05:36:27;;;;;;;4.60;1.00;;;;;;;-145.69;100.00;52638.47;5113945;28;20237;-79
2022/11/22 05:38:54;;;;;;;5.73;1.53;;;;;;;-145.69;100.00;52652.34;5113821;28;20204;-79
2022/11/22 05:41:20;;;;;;;8.47;1.47;;;;;;;-145.69;100.00;52686.00;5113850;28;20200;-78
2022/11/22 05:43:47;;;;;;;4.67;1.33;;;;;;;-145.69;100.00;52678.09;5113631;28;20193;-78
2022/11/22 05:46:17;;;;;;;10.90;1.70;;;;;;;-145.69;100.00;52662.22;5113661;28;20201;-79
2022/11/22 05:48:46;;;;;;;7.20;1.67;;;;;;;-145.69;100.00;52686.00;5098785;28;20700;-78
2022/11/22 05:51:14;;;;;;;6.27;1.20;;;;;;;-145.69;100.00;52648.38;5093735;28;20208;-78
2022/11/22 05:53:41;;;;;;;8.23;2.47;;;;;;;-145.69;100.00;52703.81;5111611;28;20197;-78
2022/11/22 05:56:09;;;;;;;8.67;1.27;;;;;;;-145.69;100.00;52678.09;5113495;28;20209;-78
2022/11/22 05:58:36;;;;;;;6.73;1.30;;;;;;;-145.69;100.00;52664.22;5113900;28;20201;-77
2022/11/22 06:01:04;;;;;;;12.20;1.63;;;;;;;-145.69;100.00;52684.03;5113944;28;20292;-78
2022/11/22 06:03:32;;;;;;;12.50;2.00;;;;;;;-145.69;100.00;52680.06;5113753;28;20201;-78
2022/11/22 06:05:58;;;;;;;4.90;1.50;;;;;;;-145.69;100.00;52686.00;5113626;28;20204;-78
2022/11/22 06:08:25;;;;;;;11.67;1.60;;;;;;;-145.69;100.00;52662.22;5113460;28;20224;-78
2022/11/22 06:10:51;;;;;;;4.17;1.30;;;;;;;-145.69;100.00;52680.06;5113341;28;20190;-78
2022/11/22 06:13:18;;;;;;;5.70;1.30;;;;;;;-145.69;100.00;52676.09;5113321;28;20288;-78
2022/11/22 06:15:44;;;;;;;4.60;1.60;;;;;;;-145.69;100.00;52684.03;5113125;28;20290;-77
2022/11/22 06:18:11;;;;;;;5.53;1.70;;;;;;;-145.69;100.00;52682.03;5113282;28;20236;-77
2022/11/22 06:20:39;;;;;;;6.87;1.53;;;;;;;-145.69;100.00;52682.03;5113008;28;20224;-78
2022/11/22 06:23:05;;;;;;;5.77;1.17;;;;;;;-145.69;100.00;52672.13;5113273;28;20284;-77
2022/11/22 06:25:32;;;;;;;2.30;1.10;;;;;;;-145.69;100.00;52664.22;5113184;28;20197;-78
2022/11/22 06:27:59;;;;;;;6.23;1.43;;;;;;;-145.69;100.00;52703.81;5113579;28;20258;-78
2022/11/22 06:30:25;;;;;;;5.33;1.70;;;;;;;-145.69;100.00;52666.19;5113307;28;20205;-79
2022/11/22 06:32:52;;;;;;;11.00;1.73;;;;;;;-145.69;100.00;52697.88;5112968;28;20193;-78
2022/11/22 06:35:18;;;;;;;7.17;1.83;;;;;;;-145.69;100.00;52644.41;5113560;28;20293;-78
2022/11/22 06:37:46;;;;;;;6.67;1.63;;;;;;;-145.69;100.00;52672.13;5112976;28;20236;-78
2022/11/22 06:40:14;;;;;;;7.50;1.33;;;;;;;-145.69;100.00;52682.03;5112785;28;20204;-78
2022/11/22 06:42:40;;;;;;;11.83;1.70;;;;;;;-145.69;100.00;52630.53;5112635;28;20212;-78
2022/11/22 06:45:08;;;;;;;10.97;1.90;;;;;;;-145.69;100.00;52686.00;5113211;28;20202;-78
2022/11/22 06:47:34;;;;;;;5.13;1.37;;;;;;;-145.69;100.00;52672.13;5112636;28;20257;-78
2022/11/22 06:50:01;;;;;;;13.18;1.75;;;;;;;-145.69;100.00;52650.34;5111509;28;20445;-77
2022/11/22 06:52:27;;;;;;;9.73;1.83;;;;;;;-145.69;100.00;52666.19;5112760;28;20220;-78
2022/11/22 06:54:55;;;;;;;6.93;1.50;;;;;;;-145.69;100.00;52674.13;5113029;28;20284;-78
2022/11/22 06:57:22;;;;;;;10.77;1.70;;;;;;;-145.69;100.00;52664.22;5112523;28;20228;-78
2022/11/22 06:59:48;;;;;;;5.73;1.57;;;;;;;-145.69;100.00;52670.16;5112686;28;20674;-78
2022/11/22 07:02:15;;;;;;;7.60;1.87;;;;;;;-145.69;100.00;52682.03;5112786;28;20204;-78
2022/11/22 07:04:41;;;;;;;8.10;1.70;;;;;;;-145.69;100.00;52691.94;5113136;28;20200;-78
2022/11/22 07:07:08;;;;;;;8.43;2.00;;;;;;;-145.69;100.00;52682.03;5112660;28;20201;-78
2022/11/22 07:09:34;;;;;;;9.37;2.00;;;;;;;-145.69;100.00;52658.28;5112352;28;20193;-78
2022/11/22 07:12:03;;;;;;;13.73;1.80;;;;;;;-145.69;100.00;52672.13;5112302;28;20190;-78
2022/11/22 07:14:29;;;;;;;7.90;1.77;;;;;;;-145.69;100.00;52650.34;5112512;28;20198;-78
2022/11/22 07:16:56;;;;;;;6.73;1.60;;;;;;;-145.69;100.00;52693.94;5113979;28;20228;-78
2022/11/22 07:19:23;;;;;;;7.13;1.53;;;;;;;-145.69;100.00;52682.03;5116811;28;20654;-78
2022/11/22 07:21:49;;;;;;;16.97;3.30;;;;;;;-145.69;100.00;52686.00;5115949;28;20194;-78
2022/11/22 07:24:16;;;;;;;14.60;2.90;;;;;;;-145.69;100.00;52686.00;5116733;28;20251;-78
2022/11/22 07:26:43;;;;;;;8.27;1.40;;;;;;;-145.69;100.00;52691.94;5116385;28;20201;-78
2022/11/22 07:29:11;;;;;;;8.03;1.57;;;;;;;-145.69;100.00;52717.69;5116845;28;20288;-78
2022/11/22 07:31:37;;;;;;;6.97;1.70;;;;;;;-145.69;100.00;52682.03;5116517;28;20395;-78
2022/11/22 07:34:04;;;;;;;8.13;1.77;;;;;;;-145.69;100.00;52670.16;5116106;28;20197;-77
2022/11/22 07:36:31;;;;;;;9.90;1.67;;;;;;;-145.69;100.00;52642.44;5116104;28;20236;-78
2022/11/22 07:38:57;;;;;;;8.03;1.53;;;;;;;-145.69;100.00;52682.03;5115837;28;20579;-78
2022/11/22 07:41:24;;;;;;;10.20;1.67;;;;;;;-145.69;100.00;52674.13;5115477;28;20216;-78
2022/11/22 07:43:51;;;;;;;16.90;2.33;;;;;;;-145.69;100.00;52705.81;5115741;28;20438;-77
2022/11/22 07:46:23;;;;;;;8.47;2.27;;;;;;;-145.69;100.00;52644.41;5116108;28;20206;-78
2022/11/22 07:48:50;;;;;;;11.53;2.40;;;;;;;-145.69;100.00;52646.41;5116373;28;20205;-78
2022/11/22 07:51:17;;;;;;;12.33;1.73;;;;;;;-145.69;100.00;52666.19;5115586;28;20547;-78
2022/11/22 07:53:44;;;;;;;15.03;2.53;;;;;;;-145.69;100.00;52682.03;5100178;28;20208;-78
2022/11/22 07:56:10;;;;;;;7.43;2.00;;;;;;;-145.69;100.00;52662.22;5095787;28;20224;-77
2022/11/22 07:58:37;;;;;;;20.40;2.13;;;;;;;-145.69;100.00;52644.41;5095807;28;20225;-77
2022/11/22 08:01:06;;;;;;;9.13;1.90;;;;;;;-145.69;100.00;52678.09;5103628;28;20200;-77
2022/11/22 08:03:34;;;;;;;10.47;2.10;;;;;;;-145.69;100.00;52676.09;5115787;28;20597;-78
2022/11/22 08:06:01;;;;;;;8.47;2.20;;;;;;;-145.69;100.00;52693.94;5115880;28;20193;-77
2022/11/22 08:08:27;;;;;;;12.67;2.17;;;;;;;-145.69;100.00;52656.28;5115293;28;20202;-78
2022/11/22 08:10:54;;;;;;;8.37;2.23;;;;;;;-145.69;100.00;52687.97;5115279;28;20189;-78
2022/11/22 08:13:20;;;;;;;7.07;2.03;;;;;;;-145.69;100.00;52672.13;5115357;28;20193;-77
2022/11/22 08:15:48;;;;;;;8.77;1.77;;;;;;;-145.69;100.00;52686.00;5115728;28;20204;-78
2022/11/22 08:18:15;;;;;;;8.17;1.67;;;;;;;-145.69;100.00;52670.16;5114833;28;20221;-78
2022/11/22 08:20:43;;;;;;;10.37;1.63;;;;;;;-145.69;100.00;52676.09;5115354;28;20193;-78
2022/11/22 08:23:09;;;;;;;14.63;2.43;;;;;;;-145.69;100.00;52682.03;5115543;28;20199;-78
2022/11/22 08:25:36;;;;;;;10.23;1.87;;;;;;;-145.69;100.00;52699.88;5115384;28;20204;-78
2022/11/22 08:28:02;;;;;;;9.87;1.70;;;;;;;-145.69;100.00;52648.38;5114808;28;20213;-78
2022/11/22 08:30:29;;;;;;;6.13;1.40;;;;;;;-145.69;100.00;52658.28;5115652;28;20224;-78
2022/11/22 08:32:56;;;;;;;14.10;2.03;;;;;;;-145.69;100.00;52662.22;5115458;28;20544;-78
2022/11/22 08:35:22;;;;;;;10.83;1.40;;;;;;;-145.69;100.00;52674.13;5114994;28;20200;-77
2022/11/22 08:37:55;;;;;;;5.17;1.47;;;;;;;-145.69;100.00;52662.22;5114614;28;20236;-78
2022/11/22 08:40:21;;;;;;;4.80;1.50;;;;;;;-145.69;100.00;52678.09;5115011;28;20205;-78
2022/11/22 08:42:48;;;;;;;6.47;1.90;;;;;;;-145.69;100.00;52674.13;5114983;28;20193;-78
2022/11/22 08:45:15;;;;;;;8.93;2.27;;;;;;;-145.69;100.00;52662.22;5114973;28;20660;-79
2022/11/22 08:47:41;;;;;;;6.97;1.80;;;;;;;-145.69;100.00;52658.28;5114315;28;20221;-80
2022/11/22 08:50:09;;;;;;;11.20;1.53;;;;;;;-145.69;100.00;52650.34;5115156;28;20238;-79
2022/11/22 08:52:35;;;;;;;8.23;1.53;;;;;;;-145.69;100.00;52640.44;5114920;28;20201;-79
2022/11/22 08:55:04;;;;;;;10.53;1.50;;;;;;;-145.69;100.00;52628.56;5115049;28;20193;-80
2022/11/22 08:57:30;;;;;;;6.33;1.60;;;;;;;-145.69;100.00;52642.44;5114452;28;20217;-80
2022/11/22 08:59:57;;;;;;;7.67;1.20;;;;;;;-145.69;100.00;52646.41;5107195;27;20553;-80
2022/11/22 09:02:23;;;;;;;9.17;2.23;;;;;;;-145.69;100.00;52638.47;5093596;28;20288;-80
2022/11/22 09:04:50;;;;;;;9.30;1.57;;;;;;;-145.69;100.00;52642.44;5094696;28;20564;-80
2022/11/22 09:07:16;;;;;;;7.23;1.60;;;;;;;-145.69;100.00;52648.38;5094345;28;20198;-80
2022/11/22 09:09:43;;;;;;;8.63;1.40;;;;;;;-145.69;100.00;52646.41;5111002;28;20193;-81
2022/11/22 09:12:11;;;;;;;8.27;1.43;;;;;;;-145.69;100.00;52618.66;5114489;28;20232;-81
2022/11/22 09:14:37;;;;;;;7.07;1.23;;;;;;;-145.69;100.00;52646.41;5114678;28;20201;-81
2022/11/22 09:17:05;;;;;;;3.53;0.90;;;;;;;-145.69;100.00;52686.00;5113453;28;20190;-80
2022/11/22 09:19:31;;;;;;;9.00;1.50;;;;;;;-145.69;100.00;52646.41;5114218;28;20586;-78
2022/11/22 09:21:58;;;;;;;8.43;2.40;;;;;;;-145.69;100.00;52670.16;5114229;28;20207;-79
2022/11/22 09:24:24;;;;;;;10.60;1.50;;;;;;;-145.69;100.00;52660.25;5114465;28;20198;-79
2022/11/22 09:26:51;;;;;;;5.13;1.70;;;;;;;-145.69;100.00;52666.19;5114210;28;20204;-79
2022/11/22 09:29:19;;;;;;;5.00;1.90;;;;;;;-145.69;100.00;52634.50;5114207;28;20292;-79
2022/11/22 09:31:45;;;;;;;10.63;1.20;;;;;;;-145.69;100.00;52636.50;5114508;28;20201;-81
2022/11/22 09:34:12;;;;;;;5.53;1.40;;;;;;;-145.69;100.00;52630.53;5114490;28;20197;-81
2022/11/22 09:36:38;;;;;;;5.53;1.60;;;;;;;-145.69;100.00;52630.53;5114755;28;20580;-82
2022/11/22 09:39:05;;;;;;;11.43;1.60;;;;;;;-145.69;100.00;52646.41;5113974;28;20218;-83
2022/11/22 09:41:51;;;;;;;5.80;1.37;;;;;;;-145.69;100.00;52674.13;5114457;28;20200;-82
2022/11/22 09:44:28;;;;;;;6.70;1.40;;;;;;;-145.69;100.00;52638.47;5112925;28;20911;-82
2022/11/22 09:46:58;;;;;;;8.50;1.23;;;;;;;-145.69;100.00;52620.66;5113901;28;20285;-80
2022/11/22 09:49:29;;;;;;;6.77;1.20;;;;;;;-145.69;100.00;52632.53;5113837;28;20197;-81
2022/11/22 09:52:04;;;;;;;9.00;1.67;;;;;;;-145.69;100.00;52666.19;5113990;27;20201;-82
2022/11/22 09:54:39;;;;;;;12.37;1.50;;;;;;;-145.69;100.00;52626.59;5102654;28;20189;-81
2022/11/22 09:57:13;;;;;;;4.83;1.60;;;;;;;-145.69;100.00;52638.47;5114201;28;20224;-84
2022/11/22 09:59:45;;;;;;;7.17;1.30;;;;;;;-145.69;100.00;52632.53;5114681;28;20262;-84
2022/11/22 10:02:19;;;;;;;7.03;1.47;;;;;;;-145.69;100.00;52642.44;5114553;27;20204;-83
2022/11/22 10:04:54;;;;;;;8.37;1.60;;;;;;;-145.69;100.00;52650.34;5114447;28;20240;-83
2022/11/22 10:07:27;;;;;;;7.20;1.10;;;;;;;-145.69;100.00;52666.19;5114459;28;20189;-84
2022/11/22 10:10:01;;;;;;;9.17;1.97;;;;;;;-145.69;100.00;52636.50;5110229;28;20193;-79
2022/11/22 10:12:36;;;;;;;9.53;1.90;;;;;;;-145.69;100.00;52666.19;5113672;28;20197;-80
2022/11/22 10:15:12;;;;;;;5.73;1.10;;;;;;;-145.69;100.00;52658.28;5113125;28;20189;-82
2022/11/22 10:17:52;;;;;;;5.70;1.30;;;;;;;-145.69;100.00;52646.41;5112561;28;20203;-81
2022/11/22 10:20:20;;;;;;;6.20;1.30;;;;;;;-145.69;100.00;52644.41;5113314;28;20551;-81
2022/11/22 10:22:48;;;;;;;8.23;1.10;;;;;;;-145.69;100.00;52656.28;5113286;28;20197;-83
2022/11/22 10:25:18;;;;;;;9.50;1.50;;;;;;;-145.69;100.00;52640.44;5113294;28;20655;-83
2022/11/22 10:27:48;;;;;;;10.63;1.60;;;;;;;-145.69;100.00;52634.50;5113795;28;20208;-83
2022/11/22 10:30:19;;;;;;;6.17;1.30;;;;;;;-145.69;100.00;52644.41;5113954;28;20194;-83
2022/11/22 10:32:57;;;;;;;6.50;1.40;;;;;;;-145.69;100.00;52614.72;5113992;28;20194;-84
2022/11/22 10:35:42;;;;;;;6.40;1.50;;;;;;;-145.69;100.00;52618.66;5093526;28;20201;-83
2022/11/22 10:38:33;;;;;;;8.47;1.63;;;;;;;-145.69;100.00;52630.53;5093242;28;20225;-83
2022/11/22 10:41:10;;;;;;;4.30;1.43;;;;;;;-145.69;100.00;52652.34;5113622;28;20198;-83
2022/11/22 10:43:44;;;;;;;5.43;1.53;;;;;;;-145.69;100.00;52642.44;5114126;28;20615;-82
2022/11/22 10:46:20;;;;;;;4.93;1.10;;;;;;;-145.69;100.00;52642.44;5113648;28;20201;-83
2022/11/22 10:48:54;;;;;;;11.17;1.60;;;;;;;-145.69;100.00;52622.63;5113566;28;20205;-83
2022/11/22 10:51:26;;;;;;;4.27;1.43;;;;;;;-145.69;100.00;52646.41;5116465;28;20201;-85
2022/11/22 10:54:07;;;;;;;5.67;1.20;;;;;;;-145.69;100.00;52642.44;5118865;28;20201;-83
2022/11/22 10:56:39;;;;;;;6.43;1.20;;;;;;;-145.69;100.00;52646.41;5120060;28;20656;-82
2022/11/22 10:59:23;;;;;;;6.07;1.57;;;;;;;-145.69;100.00;52634.50;5119349;28;20233;-82
2022/11/22 11:02:01;;;;;;;10.67;1.70;;;;;;;-145.69;100.00;52650.34;5117975;28;20193;-81
2022/11/22 11:04:32;;;;;;;5.33;1.20;;;;;;;-145.69;100.00;52646.41;5118475;28;20564;-82
2022/11/22 11:07:00;;;;;;;5.30;1.53;;;;;;;-145.69;100.00;52606.78;5117706;28;20197;-83
2022/11/22 11:09:35;;;;;;;8.07;1.33;;;;;;;-145.69;100.00;52648.38;5116932;28;20675;-82
2022/11/22 11:12:05;;;;;;;7.80;1.20;;;;;;;-145.69;100.00;52654.31;5117218;28;20224;-82
2022/11/22 11:14:37;;;;;;;4.53;1.40;;;;;;;-145.69;100.00;52604.81;5117227;28;20201;-82
2022/11/22 11:17:05;;;;;;;10.77;1.33;;;;;;;-145.69;100.00;52626.59;5116396;28;20202;-81
2022/11/22 11:19:37;;;;;;;6.47;1.20;;;;;;;-145.69;100.00;52608.75;5117138;28;20225;-81
2022/11/22 11:22:15;;;;;;;6.93;1.30;;;;;;;-145.69;100.00;52618.66;5116846;28;20580;-82
2022/11/22 11:24:42;;;;;;;6.23;2.00;;;;;;;-145.69;100.00;52624.59;5117266;28;20201;-82